createdAt,value
2018-02-23T00:00:32.926Z,101646.03
2018-02-23T00:02:58.914Z,101649.73
2018-02-23T00:05:24.882Z,101646.27
2018-02-23T00:07:50.833Z,101645.38
2018-02-23T00:10:17.108Z,101643.29
2018-02-23T00:12:43.074Z,101649.67
2018-02-23T00:15:09.023Z,101648.48
2018-02-23T00:17:35.206Z,101647.17
2018-02-23T00:20:01.166Z,101646.03
2018-02-23T00:22:27.144Z,101641.25
2018-02-23T00:24:53.109Z,101645.47
2018-02-23T00:27:19.098Z,101641.77
2018-02-23T00:29:45.064Z,101644.81
2018-02-23T00:32:11.030Z,101645.47
2018-02-23T00:34:36.996Z,101642.18
2018-02-23T00:37:02.981Z,101646.63
2018-02-23T00:39:28.947Z,101637.95
2018-02-23T00:41:54.935Z,101637.08
2018-02-23T00:44:21.027Z,101646.06
2018-02-23T00:46:47.026Z,101639.38
2018-02-23T00:49:13.066Z,101633.09
2018-02-23T00:51:39.118Z,101626.58
2018-02-23T00:54:05.947Z,101629.31
2018-02-23T00:56:31.919Z,101632.12
2018-02-23T00:58:57.898Z,101632.16
2018-02-23T01:01:23.913Z,101625.58
2018-02-23T01:03:49.865Z,101624.39
2018-02-23T01:06:16.026Z,101627.20
2018-02-23T01:08:42.007Z,101631.57
2018-02-23T01:11:07.958Z,101632.47
2018-02-23T01:13:33.923Z,101625.64
2018-02-23T01:15:59.898Z,101627.55
2018-02-23T01:18:25.870Z,101628.62
2018-02-23T01:20:51.857Z,101623.22
2018-02-23T01:23:17.839Z,101625.09
2018-02-23T01:25:43.786Z,101625.40
2018-02-23T01:28:09.754Z,101626.70
2018-02-23T01:30:35.699Z,101625.05
2018-02-23T01:33:01.652Z,101624.56
2018-02-23T01:35:27.614Z,101626.47
2018-02-23T01:37:53.595Z,101627.93
2018-02-23T01:40:19.573Z,101629.48
2018-02-23T01:42:45.533Z,101622.34
2018-02-23T01:45:11.510Z,101619.82
2018-02-23T01:47:37.480Z,101616.01
2018-02-23T01:50:03.404Z,101618.36
2018-02-23T01:52:29.369Z,101612.36
2018-02-23T01:54:55.323Z,101611.16
2018-02-23T01:57:21.306Z,101613.61
2018-02-23T01:59:47.249Z,101609.77
2018-02-23T02:02:13.185Z,101610.01
2018-02-23T02:04:39.143Z,101597.35
2018-02-23T02:07:06.109Z,101596.42
2018-02-23T02:09:32.075Z,101593.89
2018-02-23T02:11:58.031Z,101591.70
2018-02-23T02:14:23.982Z,101587.62
2018-02-23T02:16:49.946Z,101589.84
2018-02-23T02:19:15.888Z,101580.61
2018-02-23T02:21:41.870Z,101585.95
2018-02-23T02:24:07.811Z,101584.56
2018-02-23T02:26:33.805Z,101584.16
2018-02-23T02:28:59.767Z,101588.59
2018-02-23T02:31:25.738Z,101589.77
2018-02-23T02:33:51.711Z,101588.14
2018-02-23T02:36:17.674Z,101582.28
2018-02-23T02:38:43.669Z,101587.52
2018-02-23T02:41:09.638Z,101587.52
2018-02-23T02:43:35.695Z,101586.16
2018-02-23T02:46:01.670Z,101584.08
2018-02-23T02:48:27.629Z,101587.48
2018-02-23T02:50:53.700Z,101580.30
2018-02-23T02:53:19.683Z,101579.16
2018-02-23T02:55:45.683Z,101583.66
2018-02-23T02:58:11.674Z,101582.03
2018-02-23T03:00:37.656Z,101573.58
2018-02-23T03:03:03.632Z,101576.45
2018-02-23T03:05:29.613Z,101572.88
2018-02-23T03:07:55.584Z,101566.30
2018-02-23T03:10:21.718Z,101567.72
2018-02-23T03:12:47.667Z,101571.98
2018-02-23T03:15:13.708Z,101574.48
2018-02-23T03:17:39.670Z,101566.23
2018-02-23T03:20:05.646Z,101565.98
2018-02-23T03:22:31.620Z,101569.45
2018-02-23T03:24:58.449Z,101576.63
2018-02-23T03:27:24.386Z,101578.48
2018-02-23T03:29:50.349Z,101581.69
2018-02-23T03:32:16.313Z,101586.81
2018-02-23T03:34:42.304Z,101580.05
2018-02-23T03:37:08.288Z,101584.52
2018-02-23T03:39:34.246Z,101581.06
2018-02-23T03:42:00.230Z,101579.75
2018-02-23T03:44:26.197Z,101582.84
2018-02-23T03:46:52.331Z,101580.99
2018-02-23T03:49:18.504Z,101579.22
2018-02-23T03:51:44.475Z,101576.59
2018-02-23T03:54:10.434Z,101577.65
2018-02-23T03:56:36.457Z,101580.47
2018-02-23T03:59:02.345Z,101576.71
2018-02-23T04:01:28.295Z,101582.94
2018-02-23T04:03:54.269Z,101581.91
2018-02-23T04:06:20.235Z,101581.91
2018-02-23T04:08:46.326Z,101583.16
2018-02-23T04:11:12.280Z,101586.58
2018-02-23T04:13:38.223Z,101579.08
2018-02-23T04:16:04.169Z,101579.81
2018-02-23T04:18:30.121Z,101573.70
2018-02-23T04:20:56.092Z,101570.17
2018-02-23T04:23:22.083Z,101575.31
2018-02-23T04:25:48.061Z,101572.67
2018-02-23T04:28:14.027Z,101577.91
2018-02-23T04:30:40.076Z,101576.41
2018-02-23T04:33:06.037Z,101583.09
2018-02-23T04:35:32.008Z,101583.17
2018-02-23T04:37:57.981Z,101583.52
2018-02-23T04:40:24.042Z,101581.38
2018-02-23T04:42:49.985Z,101575.38
2018-02-23T04:45:15.957Z,101579.83
2018-02-23T04:47:41.917Z,101578.08
2018-02-23T04:50:07.870Z,101578.78
2018-02-23T04:52:33.860Z,101585.73
2018-02-23T04:54:59.806Z,101586.89
2018-02-23T04:57:25.775Z,101590.13
2018-02-23T04:59:51.744Z,101589.23
2018-02-23T05:02:17.695Z,101590.48
2018-02-23T05:04:43.678Z,101590.67
2018-02-23T05:07:09.642Z,101594.25
2018-02-23T05:09:35.625Z,101593.55
2018-02-23T05:12:01.570Z,101597.78
2018-02-23T05:14:27.525Z,101594.61
2018-02-23T05:16:53.486Z,101588.84
2018-02-23T05:19:19.457Z,101595.61
2018-02-23T05:21:45.445Z,101603.48
2018-02-23T05:24:11.412Z,101602.45
2018-02-23T05:26:37.377Z,101600.95
2018-02-23T05:29:03.326Z,101599.27
2018-02-23T05:31:29.308Z,101595.38
2018-02-23T05:33:55.275Z,101599.38
2018-02-23T05:36:21.260Z,101601.52
2018-02-23T05:38:47.221Z,101596.00
2018-02-23T05:41:13.174Z,101598.76
2018-02-23T05:43:39.253Z,101597.08
2018-02-23T05:46:05.226Z,101595.63
2018-02-23T05:48:31.217Z,101593.02
2018-02-23T05:50:57.223Z,101589.27
2018-02-23T05:53:23.192Z,101592.38
2018-02-23T05:55:49.150Z,101595.34
2018-02-23T05:58:15.129Z,101594.27
2018-02-23T06:00:41.092Z,101597.08
2018-02-23T06:03:07.046Z,101594.80
2018-02-23T06:05:33.012Z,101594.62
2018-02-23T06:07:58.993Z,101596.77
2018-02-23T06:10:24.945Z,101596.89
2018-02-23T06:12:50.941Z,101598.63
2018-02-23T06:15:16.918Z,101600.90
2018-02-23T06:17:42.889Z,101601.13
2018-02-23T06:20:08.869Z,101604.60
2018-02-23T06:22:34.848Z,101600.59
2018-02-23T06:25:00.797Z,101612.53
2018-02-23T06:27:26.747Z,101610.73
2018-02-23T06:29:52.733Z,101613.13
2018-02-23T06:32:18.709Z,101608.28
2018-02-23T06:34:44.677Z,101619.30
2018-02-23T06:37:10.702Z,101624.69
2018-02-23T06:39:36.652Z,101622.23
2018-02-23T06:42:02.674Z,101627.88
2018-02-23T06:44:28.659Z,101630.14
2018-02-23T06:46:54.623Z,101628.92
2018-02-23T06:49:20.622Z,101633.70
2018-02-23T06:51:46.593Z,101630.28
2018-02-23T06:54:12.552Z,101638.05
2018-02-23T06:56:38.512Z,101645.27
2018-02-23T06:59:04.465Z,101643.33
2018-02-23T07:01:30.436Z,101638.78
2018-02-23T07:03:56.397Z,101635.48
2018-02-23T07:06:22.351Z,101634.45
2018-02-23T07:08:48.330Z,101633.51
2018-02-23T07:11:14.330Z,101642.72
2018-02-23T07:13:40.262Z,101646.98
2018-02-23T07:16:06.241Z,101645.02
2018-02-23T07:18:32.246Z,101641.89
2018-02-23T07:20:58.287Z,101645.73
2018-02-23T07:23:24.252Z,101641.83
2018-02-23T07:25:50.220Z,101646.27
2018-02-23T07:28:16.244Z,101641.76
2018-02-23T07:30:42.211Z,101649.63
2018-02-23T07:33:08.187Z,101653.39
2018-02-23T07:35:34.176Z,101656.92
2018-02-23T07:38:00.170Z,101654.25
2018-02-23T07:40:26.126Z,101651.91
2018-02-23T07:42:52.107Z,101651.23
2018-02-23T07:45:18.065Z,101650.41
2018-02-23T07:47:44.038Z,101655.91
2018-02-23T07:50:10.017Z,101652.08
2018-02-23T07:52:35.965Z,101649.27
2018-02-23T07:55:01.938Z,101658.61
2018-02-23T07:57:27.930Z,101654.65
2018-02-23T07:59:53.910Z,101658.92
2018-02-23T08:02:19.870Z,101657.66
2018-02-23T08:04:45.841Z,101658.59
2018-02-23T08:07:11.783Z,101655.55
2018-02-23T08:09:37.761Z,101658.02
2018-02-23T08:12:03.748Z,101651.35
2018-02-23T08:14:29.702Z,101655.78
2018-02-23T08:16:55.684Z,101657.66
2018-02-23T08:19:21.678Z,101663.47
2018-02-23T08:21:47.651Z,101665.91
2018-02-23T08:24:13.629Z,101668.33
2018-02-23T08:26:39.593Z,101665.99
2018-02-23T08:29:05.580Z,101657.30
2018-02-23T08:31:31.532Z,101664.44
2018-02-23T08:33:57.505Z,101657.89
2018-02-23T08:36:23.465Z,101660.34
2018-02-23T08:38:49.419Z,101659.59
2018-02-23T08:41:15.471Z,101661.53
2018-02-23T08:43:41.452Z,101657.16
2018-02-23T08:46:07.436Z,101657.41
2018-02-23T08:48:33.381Z,101654.00
2018-02-23T08:50:59.384Z,101658.30
2018-02-23T08:53:25.334Z,101657.72
2018-02-23T08:55:51.309Z,101654.31
2018-02-23T08:58:17.294Z,101646.20
2018-02-23T09:00:43.260Z,101647.72
2018-02-23T09:03:09.293Z,101648.66
2018-02-23T09:05:35.246Z,101648.06
2018-02-23T09:08:01.235Z,101651.59
2018-02-23T09:10:27.230Z,101644.66
2018-02-23T09:12:53.251Z,101645.96
2018-02-23T09:15:19.230Z,101650.47
2018-02-23T09:17:45.184Z,101660.04
2018-02-23T09:20:11.173Z,101656.52
2018-02-23T09:22:37.146Z,101654.33
2018-02-23T09:25:03.111Z,101655.69
2018-02-23T09:27:29.054Z,101655.16
2018-02-23T09:29:55.038Z,101647.06
2018-02-23T09:32:21.013Z,101647.42
2018-02-23T09:34:47.149Z,101647.83
2018-02-23T09:37:13.131Z,101646.95
2018-02-23T09:39:39.130Z,101653.15
2018-02-23T09:42:05.122Z,101649.55
2018-02-23T09:44:31.085Z,101646.97
2018-02-23T09:46:57.061Z,101649.09
2018-02-23T09:49:23.030Z,101641.95
2018-02-23T09:51:49.038Z,101652.39
2018-02-23T09:54:14.994Z,101646.33
2018-02-23T09:56:41.073Z,101655.55
2018-02-23T09:59:06.986Z,101655.24
2018-02-23T10:01:32.970Z,101647.64
2018-02-23T10:03:58.925Z,101655.62
2018-02-23T10:06:24.911Z,101649.02
2018-02-23T10:08:50.879Z,101655.68
2018-02-23T10:11:16.846Z,101651.83
2018-02-23T10:13:42.808Z,101645.30
2018-02-23T10:16:08.781Z,101648.34
2018-02-23T10:18:34.755Z,101651.66
2018-02-23T10:21:00.737Z,101648.13
2018-02-23T10:23:26.726Z,101641.41
2018-02-23T10:25:52.706Z,101642.65
2018-02-23T10:28:18.692Z,101633.26
2018-02-23T10:30:44.636Z,101639.09
2018-02-23T10:33:10.635Z,101639.22
2018-02-23T10:35:36.585Z,101634.55
2018-02-23T10:38:02.604Z,101630.86
2018-02-23T10:40:28.538Z,101633.34
2018-02-23T10:42:54.508Z,101630.39
2018-02-23T10:45:20.480Z,101621.37
2018-02-23T10:47:46.460Z,101625.95
2018-02-23T10:50:12.406Z,101630.58
2018-02-23T10:52:38.365Z,101627.49
2018-02-23T10:55:04.346Z,101620.03
2018-02-23T10:57:30.352Z,101618.38
2018-02-23T10:59:56.339Z,101614.97
2018-02-23T11:02:22.296Z,101605.47
2018-02-23T11:04:48.284Z,101610.52
2018-02-23T11:07:14.278Z,101609.34
2018-02-23T11:09:40.247Z,101604.78
2018-02-23T11:12:06.235Z,101600.97
2018-02-23T11:14:32.173Z,101599.91
2018-02-23T11:16:58.141Z,101595.80
2018-02-23T11:19:24.093Z,101595.59
2018-02-23T11:21:50.075Z,101589.39
2018-02-23T11:24:16.058Z,101586.59
2018-02-23T11:26:42.018Z,101586.39
2018-02-23T11:29:07.991Z,101584.28
2018-02-23T11:31:33.971Z,101582.26
2018-02-23T11:33:59.938Z,101579.20
2018-02-23T11:36:26.070Z,101575.59
2018-02-23T11:38:52.057Z,101579.02
2018-02-23T11:41:18.041Z,101571.71
2018-02-23T11:43:44.017Z,101567.73
2018-02-23T11:46:10.010Z,101573.01
2018-02-23T11:48:35.966Z,101567.84
2018-02-23T11:51:02.032Z,101567.02
2018-02-23T11:53:28.001Z,101561.73
2018-02-23T11:55:53.973Z,101565.46
2018-02-23T11:58:19.958Z,101560.97
2018-02-23T12:00:45.943Z,101561.71
2018-02-23T12:03:11.915Z,101561.97
2018-02-23T12:05:38.107Z,101565.52
2018-02-23T12:08:04.054Z,101560.80
2018-02-23T12:10:30.013Z,101550.95
2018-02-23T12:12:55.995Z,101546.03
2018-02-23T12:15:21.942Z,101553.45
2018-02-23T12:17:47.929Z,101547.70
2018-02-23T12:20:13.924Z,101550.89
2018-02-23T12:22:39.896Z,101552.39
2018-02-23T12:25:05.854Z,101551.06
2018-02-23T12:27:31.807Z,101546.28
2018-02-23T12:29:57.781Z,101543.69
2018-02-23T12:32:23.736Z,101539.20
2018-02-23T12:34:49.714Z,101539.97
2018-02-23T12:37:15.709Z,101540.22
2018-02-23T12:39:41.674Z,101535.55
2018-02-23T12:42:07.626Z,101538.00
2018-02-23T12:44:33.631Z,101531.41
2018-02-23T12:46:59.583Z,101522.66
2018-02-23T12:49:25.554Z,101512.76
2018-02-23T12:51:51.535Z,101514.10
2018-02-23T12:54:17.507Z,101505.63
2018-02-23T12:56:43.466Z,101506.77
2018-02-23T12:59:09.430Z,101499.34
2018-02-23T13:01:35.390Z,101499.05
2018-02-23T13:04:01.365Z,101497.77
2018-02-23T13:06:27.323Z,101499.28
2018-02-23T13:08:53.284Z,101492.45
2018-02-23T13:11:19.265Z,101496.30
2018-02-23T13:13:45.262Z,101491.25
2018-02-23T13:16:11.245Z,101490.64
2018-02-23T13:18:37.207Z,101491.41
2018-02-23T13:21:03.196Z,101484.02
2018-02-23T13:23:29.172Z,101479.42
2018-02-23T13:25:55.130Z,101472.94
2018-02-23T13:28:21.122Z,101469.21
2018-02-23T13:30:47.084Z,101463.19
2018-02-23T13:33:13.070Z,101465.93
2018-02-23T13:35:39.052Z,101460.13
2018-02-23T13:38:05.038Z,101460.95
2018-02-23T13:40:31.018Z,101459.19
2018-02-23T13:42:57.020Z,101453.27
2018-02-23T13:45:22.983Z,101461.93
2018-02-23T13:47:48.993Z,101459.55
2018-02-23T13:50:15.067Z,101454.55
2018-02-23T13:52:41.033Z,101451.19
2018-02-23T13:55:07.016Z,101452.21
2018-02-23T13:57:33.020Z,101453.98
2018-02-23T13:59:59.000Z,101445.98
2018-02-23T14:02:25.000Z,101446.22
2018-02-23T14:04:51.010Z,101444.74
2018-02-23T14:07:16.999Z,101438.80
2018-02-23T14:09:42.989Z,101441.50
2018-02-23T14:12:08.995Z,101445.77
2018-02-23T14:14:34.946Z,101435.86
2018-02-23T14:17:00.911Z,101436.53
2018-02-23T14:19:26.890Z,101432.84
2018-02-23T14:21:53.008Z,101430.47
2018-02-23T14:24:18.946Z,101424.96
2018-02-23T14:26:44.943Z,101422.97
2018-02-23T14:29:10.950Z,101419.46
2018-02-23T14:31:36.918Z,101418.33
2018-02-23T14:34:02.894Z,101413.55
2018-02-23T14:36:28.842Z,101417.46
2018-02-23T14:38:54.811Z,101418.30
2018-02-23T14:41:20.785Z,101415.77
2018-02-23T14:43:46.770Z,101415.73
2018-02-23T14:46:12.765Z,101413.92
2018-02-23T14:48:38.722Z,101414.71
2018-02-23T14:51:04.695Z,101410.27
2018-02-23T14:53:30.663Z,101407.97
2018-02-23T14:55:56.642Z,101407.93
2018-02-23T14:58:22.604Z,101398.58
2018-02-23T15:00:48.591Z,101400.43
2018-02-23T15:03:14.561Z,101402.05
2018-02-23T15:05:40.544Z,101402.50
2018-02-23T15:08:06.518Z,101408.16
2018-02-23T15:10:32.498Z,101398.73
2018-02-23T15:12:58.481Z,101394.92
2018-02-23T15:15:24.447Z,101392.75
2018-02-23T15:17:50.396Z,101392.03
2018-02-23T15:20:16.350Z,101391.92
2018-02-23T15:22:42.302Z,101394.78
2018-02-23T15:25:08.295Z,101381.97
2018-02-23T15:27:34.266Z,101388.00
2018-02-23T15:30:00.245Z,101392.27
2018-02-23T15:32:26.194Z,101402.42
2018-02-23T15:34:52.359Z,101397.27
2018-02-23T15:37:18.328Z,101401.71
2018-02-23T15:39:44.310Z,101398.36
2018-02-23T15:42:10.276Z,101401.11
2018-02-23T15:44:36.240Z,101398.48
2018-02-23T15:47:02.215Z,101403.78
2018-02-23T15:49:28.177Z,101405.56
2018-02-23T15:51:54.186Z,101396.52
2018-02-23T15:54:20.160Z,101400.63
2018-02-23T15:56:46.154Z,101402.51
2018-02-23T15:59:12.128Z,101403.15
2018-02-23T16:01:38.092Z,101401.94
2018-02-23T16:04:04.050Z,101403.98
2018-02-23T16:06:30.019Z,101410.38
2018-02-23T16:08:56.005Z,101407.22
2018-02-23T16:11:21.990Z,101412.11
2018-02-23T16:13:47.968Z,101414.34
2018-02-23T16:16:13.947Z,101420.81
2018-02-23T16:18:39.932Z,101418.37
2018-02-23T16:21:05.926Z,101420.63
2018-02-23T16:23:31.895Z,101417.69
2018-02-23T16:25:57.856Z,101424.47
2018-02-23T16:28:23.828Z,101426.20
2018-02-23T16:30:49.801Z,101431.97
2018-02-23T16:33:15.772Z,101427.59
2018-02-23T16:35:41.734Z,101432.20
2018-02-23T16:38:07.721Z,101433.10
2018-02-23T16:40:33.687Z,101436.64
2018-02-23T16:42:59.893Z,101434.05
2018-02-23T16:45:25.850Z,101438.15
2018-02-23T16:47:51.853Z,101440.37
2018-02-23T16:50:17.839Z,101443.58
2018-02-23T16:52:43.824Z,101442.45
2018-02-23T16:55:09.809Z,101446.97
2018-02-23T16:57:35.762Z,101455.30
2018-02-23T17:00:01.741Z,101452.92
2018-02-23T17:02:27.747Z,101460.98
2018-02-23T17:04:53.709Z,101460.45
2018-02-23T17:07:19.705Z,101465.61
2018-02-23T17:09:45.676Z,101462.11
2018-02-23T17:12:11.664Z,101465.73
2018-02-23T17:14:37.617Z,101463.16
2018-02-23T17:17:03.668Z,101465.84
2018-02-23T17:19:29.643Z,101468.11
2018-02-23T17:21:55.630Z,101470.02
2018-02-23T17:24:21.633Z,101470.44
2018-02-23T17:26:47.624Z,101470.59
2018-02-23T17:29:13.578Z,101468.78
2018-02-23T17:31:39.615Z,101468.70
2018-02-23T17:34:05.586Z,101469.64
2018-02-23T17:36:31.581Z,101477.27
2018-02-23T17:38:57.626Z,101471.88
2018-02-23T17:41:23.592Z,101471.20
2018-02-23T17:43:49.580Z,101477.98
2018-02-23T17:46:15.582Z,101484.80
2018-02-23T17:48:41.582Z,101482.89
2018-02-23T17:51:07.576Z,101483.98
2018-02-23T17:53:33.543Z,101487.17
2018-02-23T17:55:59.565Z,101485.48
2018-02-23T17:58:25.547Z,101485.97
2018-02-23T18:00:51.526Z,101489.81
2018-02-23T18:03:17.581Z,101485.94
2018-02-23T18:05:43.555Z,101486.11
2018-02-23T18:08:09.529Z,101487.55
2018-02-23T18:10:35.547Z,101488.27
2018-02-23T18:13:01.519Z,101490.41
2018-02-23T18:15:27.497Z,101487.75
2018-02-23T18:17:53.480Z,101489.67
2018-02-23T18:20:19.454Z,101497.38
2018-02-23T18:22:45.441Z,101498.30
2018-02-23T18:25:11.404Z,101499.73
2018-02-23T18:27:37.386Z,101499.20
2018-02-23T18:30:03.418Z,101506.94
2018-02-23T18:32:29.447Z,101502.08
2018-02-23T18:34:55.399Z,101504.37
2018-02-23T18:37:21.406Z,101503.70
2018-02-23T18:39:47.398Z,101509.84
2018-02-23T18:42:13.388Z,101505.28
2018-02-23T18:44:39.375Z,101504.04
2018-02-23T18:47:05.333Z,101505.43
2018-02-23T18:49:31.310Z,101502.64
2018-02-23T18:51:57.313Z,101496.01
2018-02-23T18:54:23.290Z,101494.58
2018-02-23T18:56:49.325Z,101495.41
2018-02-23T18:59:15.330Z,101492.92
2018-02-23T19:01:41.266Z,101492.81
2018-02-23T19:04:07.246Z,101486.70
2018-02-23T19:06:33.217Z,101488.36
2018-02-23T19:08:59.169Z,101489.11
2018-02-23T19:11:25.128Z,101490.14
2018-02-23T19:13:51.095Z,101496.34
2018-02-23T19:16:17.079Z,101496.54
2018-02-23T19:18:43.118Z,101500.53
2018-02-23T19:21:09.113Z,101497.38
2018-02-23T19:23:35.091Z,101502.95
2018-02-23T19:26:01.050Z,101501.34
2018-02-23T19:28:27.079Z,101501.71
2018-02-23T19:30:53.052Z,101506.61
2018-02-23T19:33:19.049Z,101503.52
2018-02-23T19:35:45.047Z,101507.66
2018-02-23T19:38:11.001Z,101509.05
2018-02-23T19:40:36.984Z,101500.92
2018-02-23T19:43:02.978Z,101505.86
2018-02-23T19:45:29.058Z,101501.89
2018-02-23T19:47:55.009Z,101511.69
2018-02-23T19:50:20.986Z,101517.58
2018-02-23T19:52:47.025Z,101521.16
2018-02-23T19:55:13.044Z,101525.50
2018-02-23T19:57:39.044Z,101533.08
2018-02-23T20:00:05.181Z,101538.58
2018-02-23T20:02:31.177Z,101534.81
2018-02-23T20:04:57.142Z,101538.05
2018-02-23T20:07:23.172Z,101540.62
2018-02-23T20:09:49.171Z,101548.00
2018-02-23T20:12:15.151Z,101554.98
2018-02-23T20:14:41.119Z,101553.21
2018-02-23T20:17:07.170Z,101550.88
2018-02-23T20:19:33.150Z,101551.11
2018-02-23T20:21:59.127Z,101556.11
2018-02-23T20:24:25.281Z,101559.16
2018-02-23T20:26:51.343Z,101564.81
2018-02-23T20:29:17.855Z,101566.37
2018-02-23T20:31:43.951Z,101567.38
2018-02-23T20:34:09.944Z,101571.55
2018-02-23T20:36:36.034Z,101575.85
2018-02-23T20:39:02.015Z,101569.28
2018-02-23T20:41:28.114Z,101576.28
2018-02-23T20:43:54.158Z,101576.98
2018-02-23T20:46:20.289Z,101575.18
2018-02-23T20:48:46.372Z,101571.55
2018-02-23T20:51:12.387Z,101569.44
2018-02-23T20:53:38.527Z,101572.25
2018-02-23T20:56:04.546Z,101568.49
2018-02-23T20:58:30.728Z,101568.91
2018-02-23T21:00:56.832Z,101570.53
2018-02-23T21:03:22.826Z,101571.12
2018-02-23T21:05:48.785Z,101565.21
2018-02-23T21:08:14.776Z,101570.30
2018-02-23T21:10:40.770Z,101567.03
2018-02-23T21:13:06.781Z,101568.14
2018-02-23T21:15:32.738Z,101565.81
2018-02-23T21:17:58.714Z,101565.73
2018-02-23T21:20:24.800Z,101558.01
2018-02-23T21:22:50.788Z,101559.59
2018-02-23T21:25:16.759Z,101562.34
2018-02-23T21:27:42.885Z,101558.56
2018-02-23T21:30:08.857Z,101556.28
2018-02-23T21:32:34.817Z,101551.80
2018-02-23T21:35:00.812Z,101555.75
2018-02-23T21:37:26.786Z,101561.97
2018-02-23T21:39:52.800Z,101564.79
2018-02-23T21:42:18.741Z,101573.53
2018-02-23T21:44:44.852Z,101569.41
2018-02-23T21:47:10.833Z,101576.12
2018-02-23T21:49:36.813Z,101573.30
2018-02-23T21:52:02.940Z,101572.42
2018-02-23T21:54:28.909Z,101567.97
2018-02-23T21:56:54.891Z,101565.89
2018-02-23T21:59:20.897Z,101571.12
2018-02-23T22:01:46.913Z,101575.25
2018-02-23T22:04:12.893Z,101572.21
2018-02-23T22:06:38.857Z,101575.61
2018-02-23T22:09:04.862Z,101576.94
2018-02-23T22:11:30.880Z,101574.30
2018-02-23T22:13:56.823Z,101572.14
2018-02-23T22:16:22.777Z,101577.23
2018-02-23T22:18:48.796Z,101570.75
2018-02-23T22:21:14.788Z,101566.20
2018-02-23T22:23:40.755Z,101574.00
2018-02-23T22:26:06.714Z,101570.45
2018-02-23T22:28:32.717Z,101578.92
2018-02-23T22:30:58.720Z,101577.29
2018-02-23T22:33:24.752Z,101580.89
2018-02-23T22:35:50.787Z,101585.38
2018-02-23T22:38:16.742Z,101584.72
2018-02-23T22:40:42.706Z,101594.50
2018-02-23T22:43:08.710Z,101591.45
2018-02-23T22:45:34.691Z,101588.86
2018-02-23T22:48:00.690Z,101588.92
2018-02-23T22:50:26.660Z,101585.98
2018-02-23T22:52:52.638Z,101595.15
2018-02-23T22:55:18.613Z,101583.17
2018-02-23T22:57:44.605Z,101591.86
2018-02-23T23:00:10.561Z,101582.87
2018-02-23T23:02:36.539Z,101590.01
2018-02-23T23:05:02.488Z,101587.48
2018-02-23T23:07:28.437Z,101582.09
2018-02-23T23:09:54.409Z,101584.20
2018-02-23T23:12:20.490Z,101581.08
2018-02-23T23:14:46.453Z,101580.41
2018-02-23T23:17:12.426Z,101587.17
2018-02-23T23:19:38.400Z,101590.41
2018-02-23T23:22:04.370Z,101594.53
2018-02-23T23:24:30.330Z,101590.72
2018-02-23T23:26:56.301Z,101595.61
2018-02-23T23:29:22.271Z,101589.20
2018-02-23T23:31:48.237Z,101589.27
2018-02-23T23:34:14.206Z,101596.83
2018-02-23T23:36:40.215Z,101598.94
2018-02-23T23:39:06.183Z,101604.84
2018-02-23T23:41:32.178Z,101599.35
2018-02-23T23:43:58.102Z,101601.30
2018-02-23T23:46:24.062Z,101603.52
2018-02-23T23:48:50.014Z,101604.18
2018-02-23T23:51:15.955Z,101606.99
2018-02-23T23:53:41.955Z,101612.50
2018-02-23T23:56:07.909Z,101615.38
2018-02-23T23:58:33.934Z,101623.36
